Time;durP1;ratioP1;P1;durP2;ratioP2;P2;SDS_P1;SDS_P2;PMS_P1;PMS_P2;Temp;Humidity;BMP_temperature;BMP_pressure;BME280_temperature;BME280_humidity;BME280_pressure;Samples;Min_cycle;Max_cycle;Signal;HPM_P1;HPM_P2
2022/05/07 00:00:38;;;;;;;0.57;0.43;;;14.40;99.90;;;;;;5066608;28;20032;-61
2022/05/07 00:03:04;;;;;;;1.45;0.88;;;14.40;99.90;;;;;;5066740;28;20024;-61
2022/05/07 00:05:31;;;;;;;0.95;0.57;;;14.40;99.90;;;;;;5066872;28;20029;-61
2022/05/07 00:07:57;;;;;;;0.77;0.30;;;14.30;99.90;;;;;;5068538;28;20020;-61
2022/05/07 00:10:23;;;;;;;0.88;0.52;;;14.30;99.90;;;;;;5067752;28;20036;-61
2022/05/07 00:12:48;;;;;;;1.40;0.70;;;14.30;99.90;;;;;;5071755;28;20036;-61
2022/05/07 00:15:14;;;;;;;2.40;1.05;;;14.30;99.90;;;;;;5070563;28;20583;-61
2022/05/07 00:20:24;;;;;;;0.60;0.40;;;14.30;99.90;;;;;;5073753;28;20078;-61
2022/05/07 00:22:49;;;;;;;0.50;0.50;;;14.30;99.90;;;;;;5073609;28;20020;-61
2022/05/07 00:25:15;;;;;;;1.20;0.40;;;14.20;99.90;;;;;;5073546;28;20066;-61
2022/05/07 00:27:41;;;;;;;0.65;0.38;;;14.30;99.90;;;;;;5073359;28;20032;-61
2022/05/07 00:30:07;;;;;;;0.70;0.40;;;14.30;99.90;;;;;;5073206;28;20032;-61
2022/05/07 00:32:33;;;;;;;0.68;0.40;;;14.20;99.90;;;;;;5073308;28;20024;-61
2022/05/07 00:34:59;;;;;;;0.63;0.50;;;14.20;99.90;;;;;;5073557;28;20052;-61
2022/05/07 00:37:25;;;;;;;0.50;0.45;;;14.30;99.90;;;;;;5071225;28;20028;-61
2022/05/07 00:39:51;;;;;;;1.00;0.60;;;14.30;99.90;;;;;;5070136;28;20043;-61
2022/05/07 00:42:17;;;;;;;0.38;0.30;;;14.30;99.90;;;;;;5051688;28;20063;-61
2022/05/07 00:44:43;;;;;;;1.13;0.60;;;14.30;99.90;;;;;;5069890;28;20079;-61
2022/05/07 00:47:14;;;;;;;2.05;0.30;;;14.30;99.90;;;;;;5070856;28;20025;-61
2022/05/07 00:49:46;;;;;;;3.28;0.45;;;14.30;99.90;;;;;;5069975;28;20036;-61
2022/05/07 00:52:13;;;;;;;0.43;0.30;;;14.30;99.90;;;;;;5071453;28;20484;-61
2022/05/07 00:54:40;;;;;;;0.52;0.30;;;14.20;99.90;;;;;;5069666;28;20090;-61
2022/05/07 00:57:07;;;;;;;0.25;0.25;;;14.20;99.90;;;;;;5072738;28;20098;-61
2022/05/07 00:59:33;;;;;;;0.88;0.52;;;14.20;99.90;;;;;;5072927;28;20196;-61
2022/05/07 01:01:59;;;;;;;0.80;0.60;;;14.20;99.90;;;;;;5071484;28;20109;-61
2022/05/07 01:04:24;;;;;;;1.95;0.65;;;14.20;99.90;;;;;;5069490;28;20435;-61
2022/05/07 01:06:50;;;;;;;1.80;0.52;;;14.20;99.90;;;;;;5070713;28;20107;-61
2022/05/07 01:09:16;;;;;;;0.50;0.30;;;14.10;99.90;;;;;;5072669;28;20047;-61
2022/05/07 01:11:42;;;;;;;0.52;0.35;;;14.00;99.90;;;;;;5072287;28;20020;-61
2022/05/07 01:14:08;;;;;;;2.20;0.70;;;13.90;99.90;;;;;;5054364;28;20074;-61
2022/05/07 01:16:33;;;;;;;1.15;0.40;;;13.90;99.90;;;;;;5072567;28;20021;-61
2022/05/07 01:18:59;;;;;;;2.33;0.55;;;13.80;99.90;;;;;;5072501;28;20107;-61
2022/05/07 01:21:25;;;;;;;0.40;0.30;;;13.80;99.90;;;;;;5072339;28;20816;-61
2022/05/07 01:23:51;;;;;;;1.00;0.40;;;13.70;99.90;;;;;;5072434;28;20108;-61
2022/05/07 01:26:20;;;;;;;1.48;0.45;;;13.60;99.90;;;;;;5072173;28;20024;-62
2022/05/07 01:28:45;;;;;;;0.50;0.40;;;13.60;99.90;;;;;;5072456;28;20051;-60
2022/05/07 01:31:11;;;;;;;0.73;0.40;;;13.50;99.90;;;;;;5072434;28;20017;-60
2022/05/07 01:33:38;;;;;;;1.80;0.82;;;13.40;99.90;;;;;;5072158;28;20507;-61
2022/05/07 01:36:11;;;;;;;2.13;0.57;;;13.30;99.90;;;;;;5072629;28;20162;-61
2022/05/07 01:38:37;;;;;;;1.10;0.70;;;13.20;99.90;;;;;;5072439;28;20048;-62
2022/05/07 01:41:04;;;;;;;1.75;0.68;;;13.20;99.90;;;;;;5072123;28;20028;-61
2022/05/07 01:43:32;;;;;;;0.75;0.40;;;13.20;99.90;;;;;;5071840;28;20047;-61
2022/05/07 01:46:01;;;;;;;1.52;0.50;;;13.10;99.90;;;;;;5064899;28;20374;-61
2022/05/07 01:48:27;;;;;;;1.20;0.70;;;13.10;99.90;;;;;;5051711;28;20468;-61
2022/05/07 01:50:55;;;;;;;0.75;0.40;;;13.10;99.90;;;;;;5048167;28;20048;-61
2022/05/07 01:53:22;;;;;;;0.85;0.47;;;13.00;99.90;;;;;;5048812;28;20041;-61
2022/05/07 01:55:48;;;;;;;0.52;0.40;;;13.10;99.90;;;;;;5048825;28;20028;-61
2022/05/07 01:58:14;;;;;;;0.85;0.77;;;13.00;99.90;;;;;;5048513;28;20031;-61
2022/05/07 02:00:42;;;;;;;1.73;0.60;;;13.10;99.90;;;;;;5048324;28;20449;-61
2022/05/07 02:03:09;;;;;;;2.10;0.68;;;13.10;99.90;;;;;;5048507;28;20481;-61
2022/05/07 02:05:35;;;;;;;1.98;0.68;;;13.10;99.90;;;;;;5048739;28;20134;-61
2022/05/07 02:08:01;;;;;;;0.80;0.80;;;13.10;99.90;;;;;;5053564;28;20094;-61
2022/05/07 02:10:27;;;;;;;1.15;0.85;;;13.10;99.90;;;;;;5071435;28;20040;-61
2022/05/07 02:12:53;;;;;;;0.70;0.47;;;13.10;99.90;;;;;;5070990;28;20713;-61
2022/05/07 02:15:19;;;;;;;0.80;0.60;;;13.10;99.90;;;;;;5068140;28;20036;-61
2022/05/07 02:17:45;;;;;;;1.27;0.70;;;13.00;99.90;;;;;;5068278;28;20037;-61
2022/05/07 02:20:11;;;;;;;1.23;0.60;;;13.00;99.90;;;;;;5068342;28;20029;-61
2022/05/07 02:22:37;;;;;;;1.27;0.77;;;12.90;99.90;;;;;;5067832;28;20396;-61
2022/05/07 02:25:04;;;;;;;1.50;0.70;;;12.90;99.90;;;;;;5068110;28;20396;-61
2022/05/07 02:27:30;;;;;;;2.38;0.98;;;12.90;99.90;;;;;;5067900;28;20023;-61
2022/05/07 02:29:55;;;;;;;1.50;0.65;;;12.90;99.90;;;;;;5070369;28;20040;-61
2022/05/07 02:32:21;;;;;;;0.68;0.47;;;12.90;99.90;;;;;;5053107;28;20029;-61
2022/05/07 02:34:47;;;;;;;2.17;0.65;;;12.90;99.90;;;;;;5070483;28;20258;-61
2022/05/07 02:37:13;;;;;;;0.75;0.57;;;12.90;99.90;;;;;;5071179;28;20055;-60
2022/05/07 02:39:39;;;;;;;1.33;0.68;;;12.90;99.90;;;;;;5070551;28;20819;-61
2022/05/07 02:44:50;;;;;;;1.67;0.40;;;12.90;99.90;;;;;;5068041;28;20059;-61
2022/05/07 02:47:15;;;;;;;1.00;0.65;;;12.90;99.90;;;;;;5064335;28;20036;-61
2022/05/07 02:49:41;;;;;;;0.95;0.65;;;12.90;99.90;;;;;;5067845;28;20040;-60
2022/05/07 02:52:07;;;;;;;1.42;0.60;;;12.90;99.90;;;;;;5070749;28;20090;-61
2022/05/07 02:54:33;;;;;;;0.60;0.50;;;13.00;99.90;;;;;;5070734;28;20029;-62
2022/05/07 02:56:58;;;;;;;1.35;0.73;;;13.00;99.90;;;;;;5070726;28;20031;-63
2022/05/07 02:59:25;;;;;;;0.95;0.57;;;13.10;99.90;;;;;;5070690;28;20123;-60
2022/05/07 03:01:51;;;;;;;0.70;0.38;;;13.00;99.90;;;;;;5070560;28;20028;-60
2022/05/07 03:04:17;;;;;;;0.60;0.57;;;13.10;99.90;;;;;;5070442;28;20035;-63
2022/05/07 03:06:42;;;;;;;0.95;0.75;;;13.10;99.90;;;;;;5070737;28;20020;-61
2022/05/07 03:09:08;;;;;;;0.77;0.50;;;13.10;99.90;;;;;;5070375;28;20542;-61
2022/05/07 03:11:34;;;;;;;1.10;0.60;;;13.10;99.90;;;;;;5070121;28;20017;-61
2022/05/07 03:14:01;;;;;;;1.38;0.70;;;13.20;99.90;;;;;;5070253;28;20032;-61
2022/05/07 03:16:27;;;;;;;1.27;0.82;;;13.30;99.90;;;;;;5070479;28;20111;-60
2022/05/07 03:18:52;;;;;;;0.65;0.40;;;13.30;99.90;;;;;;5070449;28;20103;-60
2022/05/07 03:21:18;;;;;;;1.58;0.88;;;13.30;99.90;;;;;;5070187;28;20366;-60
2022/05/07 03:23:47;;;;;;;2.30;0.80;;;13.30;99.90;;;;;;5070478;28;20024;-61
2022/05/07 03:26:13;;;;;;;1.10;0.70;;;13.30;99.90;;;;;;5069954;28;20138;-60
2022/05/07 03:28:39;;;;;;;0.77;0.47;;;13.40;99.90;;;;;;5070063;28;20033;-61
2022/05/07 03:31:06;;;;;;;0.60;0.40;;;13.40;99.90;;;;;;5069975;28;20572;-60
2022/05/07 03:33:32;;;;;;;1.33;0.70;;;13.40;99.90;;;;;;5069876;28;20033;-61
2022/05/07 03:35:58;;;;;;;2.72;0.80;;;13.40;99.90;;;;;;5070197;28;20052;-60
2022/05/07 03:38:23;;;;;;;1.25;0.90;;;13.50;99.90;;;;;;5070035;28;20056;-61
2022/05/07 03:40:49;;;;;;;1.27;0.77;;;13.50;99.90;;;;;;5069764;28;20028;-61
2022/05/07 03:43:15;;;;;;;1.17;0.60;;;13.60;99.90;;;;;;5069642;28;20032;-61
2022/05/07 03:45:41;;;;;;;1.13;0.65;;;13.50;99.90;;;;;;5068869;28;20040;-61
2022/05/07 03:48:07;;;;;;;2.40;1.10;;;13.60;99.90;;;;;;5069768;28;20104;-61
2022/05/07 03:50:33;;;;;;;1.20;0.90;;;13.60;99.90;;;;;;5069667;28;20058;-61
2022/05/07 03:55:43;;;;;;;2.47;0.43;;;13.50;99.90;;;;;;5069723;28;20166;-61
2022/05/07 03:58:15;;;;;;;1.38;0.93;;;13.50;99.90;;;;;;5069786;28;20024;-60
2022/05/07 04:00:42;;;;;;;0.63;0.57;;;13.50;99.90;;;;;;5069616;28;20021;-61
2022/05/07 04:03:08;;;;;;;2.55;0.80;;;13.50;99.90;;;;;;5069685;28;20032;-60
2022/05/07 04:05:34;;;;;;;1.63;0.88;;;13.40;99.90;;;;;;5069628;28;20531;-60
2022/05/07 04:08:00;;;;;;;1.70;0.82;;;13.20;99.90;;;;;;5066231;28;20052;-61
2022/05/07 04:10:25;;;;;;;0.63;0.63;;;13.10;99.90;;;;;;5069357;28;20028;-60
2022/05/07 04:12:51;;;;;;;1.42;1.15;;;13.10;99.90;;;;;;5069613;28;20350;-61
2022/05/07 04:15:18;;;;;;;0.50;0.50;;;13.10;99.90;;;;;;5069147;28;20424;-60
2022/05/07 04:17:43;;;;;;;0.68;0.63;;;13.10;99.90;;;;;;5066588;28;20099;-60
2022/05/07 04:20:10;;;;;;;1.25;0.80;;;13.20;99.90;;;;;;5066440;28;20425;-61
2022/05/07 04:22:37;;;;;;;1.70;0.90;;;13.20;99.90;;;;;;5069434;28;20028;-61
2022/05/07 04:25:06;;;;;;;1.15;0.95;;;13.20;99.90;;;;;;5069511;28;20094;-60
2022/05/07 04:27:32;;;;;;;1.20;0.70;;;13.20;99.90;;;;;;5069180;28;20111;-61
2022/05/07 04:29:57;;;;;;;1.25;0.80;;;13.30;99.90;;;;;;5069218;28;20112;-60
2022/05/07 04:32:24;;;;;;;2.20;1.00;;;13.20;99.90;;;;;;5066531;28;20377;-61
2022/05/07 04:34:50;;;;;;;1.20;0.75;;;13.20;99.90;;;;;;5066308;28;20451;-61
2022/05/07 04:37:15;;;;;;;1.17;0.73;;;13.20;99.90;;;;;;5067500;28;20104;-61
2022/05/07 04:39:41;;;;;;;1.45;0.63;;;13.30;99.90;;;;;;5069396;28;20029;-61
2022/05/07 04:42:07;;;;;;;1.45;1.00;;;13.20;99.90;;;;;;5069061;28;20036;-61
2022/05/07 04:44:34;;;;;;;1.00;0.60;;;13.20;99.90;;;;;;5069182;28;20028;-61
2022/05/07 04:47:00;;;;;;;2.58;1.10;;;13.10;99.90;;;;;;5069402;28;20111;-61
2022/05/07 04:49:26;;;;;;;1.73;1.27;;;13.10;99.90;;;;;;5069130;28;20036;-61
2022/05/07 04:51:52;;;;;;;1.08;0.85;;;13.10;99.90;;;;;;5069296;28;20021;-61
2022/05/07 04:54:19;;;;;;;1.13;0.88;;;13.20;99.90;;;;;;5069369;28;20048;-61
2022/05/07 04:56:46;;;;;;;1.35;0.90;;;13.20;99.90;;;;;;5069218;28;20021;-61
2022/05/07 04:59:12;;;;;;;1.33;0.70;;;13.20;99.90;;;;;;5070386;28;20066;-61
2022/05/07 05:01:38;;;;;;;1.00;0.90;;;13.20;99.90;;;;;;5070791;28;20668;-61
2022/05/07 05:04:04;;;;;;;0.80;0.57;;;13.10;99.90;;;;;;5070023;28;20036;-61
2022/05/07 05:06:29;;;;;;;1.55;0.63;;;13.10;99.90;;;;;;5069723;28;20024;-61
2022/05/07 05:08:55;;;;;;;1.88;0.90;;;13.00;99.90;;;;;;5071683;28;20040;-61
2022/05/07 05:11:21;;;;;;;0.80;0.70;;;13.00;99.90;;;;;;5070723;28;20020;-61
2022/05/07 05:13:46;;;;;;;1.77;0.80;;;13.10;99.90;;;;;;5069534;28;20032;-61
2022/05/07 05:16:12;;;;;;;0.60;0.45;;;13.10;99.90;;;;;;5069523;28;20032;-61
2022/05/07 05:18:38;;;;;;;2.00;0.82;;;13.20;99.90;;;;;;5069434;28;20024;-61
2022/05/07 05:21:04;;;;;;;1.60;0.63;;;13.30;99.90;;;;;;5069659;28;20401;-61
2022/05/07 05:23:30;;;;;;;0.77;0.60;;;13.30;99.90;;;;;;5069530;28;20033;-62
2022/05/07 05:25:56;;;;;;;1.05;0.73;;;13.40;99.90;;;;;;5069262;28;20419;-63
2022/05/07 05:28:22;;;;;;;1.95;0.75;;;13.30;99.90;;;;;;5072613;28;20505;-60
2022/05/07 05:30:52;;;;;;;1.00;0.57;;;13.20;99.90;;;;;;5072210;28;20552;-61
2022/05/07 05:33:21;;;;;;;0.90;0.60;;;13.10;99.90;;;;;;5072158;28;20549;-60
2022/05/07 05:35:48;;;;;;;1.00;0.70;;;13.00;99.90;;;;;;5072403;28;20111;-60
2022/05/07 05:38:17;;;;;;;2.05;0.88;;;12.90;99.90;;;;;;5069419;28;20024;-61
2022/05/07 05:40:42;;;;;;;2.20;0.80;;;12.80;99.90;;;;;;5068684;28;20564;-61
2022/05/07 05:43:09;;;;;;;1.30;0.75;;;12.80;99.90;;;;;;5069055;28;20048;-60
2022/05/07 05:45:35;;;;;;;1.98;0.95;;;12.90;99.90;;;;;;5069190;28;20024;-60
2022/05/07 05:48:01;;;;;;;6.63;1.52;;;12.90;99.90;;;;;;5072010;28;20021;-60
2022/05/07 05:50:31;;;;;;;1.30;0.88;;;12.90;99.90;;;;;;5071854;28;20389;-60
2022/05/07 05:52:57;;;;;;;1.45;1.00;;;13.00;99.90;;;;;;5068816;28;20028;-61
2022/05/07 05:55:23;;;;;;;1.67;0.90;;;13.10;99.90;;;;;;5068350;28;20374;-61
2022/05/07 05:57:49;;;;;;;1.38;0.77;;;13.30;99.90;;;;;;5071558;28;20530;-62
2022/05/07 06:00:16;;;;;;;1.92;1.20;;;13.50;99.90;;;;;;5071224;28;20036;-61
2022/05/07 06:02:44;;;;;;;2.22;0.90;;;13.70;99.90;;;;;;5065574;28;20556;-61
2022/05/07 06:05:10;;;;;;;1.13;1.02;;;13.80;99.90;;;;;;5068408;28;20033;-61
2022/05/07 06:07:35;;;;;;;1.20;0.70;;;14.00;99.90;;;;;;5070049;28;20380;-61
2022/05/07 06:10:02;;;;;;;1.40;0.93;;;14.20;99.90;;;;;;5071262;28;20477;-61
2022/05/07 06:12:27;;;;;;;2.28;1.23;;;14.50;99.90;;;;;;5071302;28;20036;-61
2022/05/07 06:14:54;;;;;;;1.75;0.73;;;14.70;99.90;;;;;;5071253;28;20021;-61
2022/05/07 06:17:20;;;;;;;2.22;0.90;;;14.80;99.90;;;;;;5071310;28;20419;-61
2022/05/07 06:19:45;;;;;;;2.22;0.98;;;14.90;99.90;;;;;;5071681;28;20021;-61
2022/05/07 06:22:11;;;;;;;1.50;1.30;;;14.90;99.90;;;;;;5050693;28;20393;-61
2022/05/07 06:27:33;;;;;;;2.72;1.20;;;14.70;99.90;;;;;;5067932;28;20063;-61
2022/05/07 06:30:03;;;;;;;1.20;0.70;;;14.70;99.90;;;;;;5069568;28;20070;-61
2022/05/07 06:32:36;;;;;;;1.25;1.08;;;14.80;99.90;;;;;;5071103;28;20032;-61
2022/05/07 06:35:05;;;;;;;2.72;1.00;;;14.90;99.90;;;;;;5071013;28;20032;-61
2022/05/07 06:37:32;;;;;;;2.35;1.40;;;15.10;99.90;;;;;;5071081;28;20029;-61
2022/05/07 06:39:58;;;;;;;2.38;1.35;;;15.30;99.90;;;;;;5070835;28;20552;-61
2022/05/07 06:42:24;;;;;;;2.33;1.38;;;15.60;99.90;;;;;;5070555;28;20049;-62
2022/05/07 06:44:50;;;;;;;2.58;1.50;;;15.90;99.90;;;;;;5070911;28;20419;-61
2022/05/07 06:47:16;;;;;;;2.20;1.50;;;16.10;99.90;;;;;;5070878;28;20020;-61
2022/05/07 06:49:43;;;;;;;2.10;1.35;;;16.30;99.90;;;;;;5070830;28;20044;-61
2022/05/07 06:52:09;;;;;;;1.95;1.50;;;16.30;99.90;;;;;;5070770;28;20040;-62
2022/05/07 06:54:34;;;;;;;3.63;1.65;;;16.00;99.90;;;;;;5070817;28;20021;-62
2022/05/07 06:57:01;;;;;;;2.10;1.40;;;16.00;99.90;;;;;;5070512;28;20036;-62
2022/05/07 06:59:26;;;;;;;3.25;2.00;;;16.10;99.90;;;;;;5070425;28;20066;-61
2022/05/07 07:01:54;;;;;;;1.45;1.35;;;16.50;99.90;;;;;;5069026;28;20028;-61
2022/05/07 07:04:20;;;;;;;3.35;1.90;;;16.80;99.90;;;;;;5064333;28;20059;-62
2022/05/07 07:06:46;;;;;;;2.97;1.60;;;16.90;99.90;;;;;;5067919;28;20114;-61
2022/05/07 07:09:11;;;;;;;2.58;1.80;;;17.30;99.90;;;;;;5070284;28;20090;-61
2022/05/07 07:11:37;;;;;;;2.05;1.63;;;17.60;99.90;;;;;;5069959;28;20033;-62
2022/05/07 07:14:03;;;;;;;1.90;1.60;;;17.70;99.90;;;;;;5070194;28;20111;-62
2022/05/07 07:16:30;;;;;;;2.20;1.75;;;17.80;99.90;;;;;;5052039;28;20413;-62
2022/05/07 07:18:55;;;;;;;3.03;1.90;;;17.90;99.90;;;;;;5070056;28;20040;-61
2022/05/07 07:21:21;;;;;;;2.53;1.83;;;18.10;99.90;;;;;;5070176;28;20033;-62
2022/05/07 07:23:47;;;;;;;4.03;2.10;;;18.30;99.90;;;;;;5070386;28;20025;-61
2022/05/07 07:26:14;;;;;;;2.20;1.73;;;18.50;99.90;;;;;;5069974;28;20455;-62
2022/05/07 07:28:40;;;;;;;4.03;2.50;;;18.40;99.90;;;;;;5069969;28;20048;-61
2022/05/07 07:31:08;;;;;;;3.50;2.45;;;18.60;99.90;;;;;;5069961;28;20028;-62
2022/05/07 07:33:34;;;;;;;2.55;1.55;;;18.70;99.90;;;;;;5070069;28;20108;-62
2022/05/07 07:36:00;;;;;;;2.72;1.77;;;18.70;99.90;;;;;;5070004;28;20520;-61
2022/05/07 07:38:26;;;;;;;3.60;1.70;;;18.70;99.90;;;;;;5069766;28;20028;-62
2022/05/07 07:40:53;;;;;;;3.95;2.08;;;18.70;99.90;;;;;;5069499;28;20020;-61
2022/05/07 07:43:20;;;;;;;2.42;1.88;;;18.60;99.90;;;;;;5069862;28;20051;-62
2022/05/07 07:48:31;;;;;;;4.80;2.65;;;18.80;99.90;;;;;;5069957;28;20465;-62
2022/05/07 07:50:57;;;;;;;2.42;1.75;;;19.30;99.90;;;;;;5070038;28;20040;-62
2022/05/07 07:53:24;;;;;;;3.53;1.90;;;19.70;99.90;;;;;;5070161;28;20021;-62
2022/05/07 07:55:50;;;;;;;5.65;3.53;;;19.80;99.90;;;;;;5069422;28;20074;-62
2022/05/07 07:58:17;;;;;;;3.83;2.50;;;19.90;99.90;;;;;;5066554;28;20151;-62
2022/05/07 08:00:44;;;;;;;2.85;1.77;;;19.70;99.90;;;;;;5069777;28;20056;-62
2022/05/07 08:03:12;;;;;;;4.43;2.28;;;19.50;99.90;;;;;;5069790;28;20032;-61
2022/05/07 08:05:39;;;;;;;2.22;1.90;;;19.60;99.90;;;;;;5069484;28;20374;-63
2022/05/07 08:13:37;;;;;;;1.55;1.13;;;23.00;94.80;;;;;;5070074;28;20450;-62
2022/05/07 08:16:03;;;;;;;1.50;1.38;;;23.90;91.30;;;;;;5069410;28;20579;-63
2022/05/07 08:18:30;;;;;;;1.83;1.20;;;24.70;88.20;;;;;;5069501;28;20400;-62
2022/05/07 08:20:56;;;;;;;2.47;1.05;;;25.40;82.80;;;;;;5069394;28;20040;-62
2022/05/07 08:23:22;;;;;;;1.10;1.00;;;25.10;78.90;;;;;;5067982;28;20024;-62
2022/05/07 08:25:48;;;;;;;1.35;1.25;;;24.10;83.50;;;;;;5066248;28;20024;-62
2022/05/07 08:28:15;;;;;;;1.42;1.27;;;23.20;88.80;;;;;;5066483;28;20575;-62
2022/05/07 08:30:41;;;;;;;1.42;1.15;;;23.30;90.80;;;;;;5048175;28;20531;-62
2022/05/07 08:33:07;;;;;;;1.10;1.00;;;24.10;87.90;;;;;;5069919;28;20033;-62
2022/05/07 08:35:32;;;;;;;1.13;1.10;;;25.60;79.80;;;;;;5070478;28;20038;-62
2022/05/07 08:37:58;;;;;;;1.10;1.00;;;24.50;79.00;;;;;;5070145;28;20051;-62
2022/05/07 08:40:24;;;;;;;1.25;1.15;;;23.50;85.10;;;;;;5070099;28;20115;-62
2022/05/07 08:42:50;;;;;;;1.10;0.98;;;22.60;90.10;;;;;;5069627;28;20077;-62
2022/05/07 08:45:16;;;;;;;0.98;0.88;;;21.40;92.60;;;;;;5069016;28;20021;-62
2022/05/07 08:47:43;;;;;;;1.00;0.90;;;20.80;95.10;;;;;;5070194;28;20451;-62
2022/05/07 08:50:11;;;;;;;1.10;0.90;;;20.00;96.90;;;;;;5069618;28;20778;-62
2022/05/07 08:52:42;;;;;;;0.82;0.70;;;20.00;98.30;;;;;;5069920;28;20036;-62
2022/05/07 08:55:12;;;;;;;1.38;0.85;;;21.70;95.70;;;;;;5070032;28;20031;-62
2022/05/07 08:57:42;;;;;;;;;;;23.30;91.90;;;;;;5070030;28;20484;-62
2022/05/07 09:00:09;;;;;;;1.33;0.90;;;23.90;88.40;;;;;;5069691;28;19915;-63
2022/05/07 09:02:41;;;;;;;1.27;0.70;;;24.60;83.10;;;;;;5069606;28;20082;-62
2022/05/07 09:05:09;;;;;;;1.48;0.70;;;23.50;84.90;;;;;;5070020;28;20025;-62
2022/05/07 09:07:35;;;;;;;1.08;0.70;;;22.60;85.30;;;;;;5069797;28;20027;-63
2022/05/07 09:10:00;;;;;;;0.60;0.60;;;21.80;89.80;;;;;;5069599;28;20139;-62
2022/05/07 09:12:28;;;;;;;1.45;1.00;;;21.50;92.70;;;;;;5052083;28;20051;-62
2022/05/07 09:15:05;;;;;;;1.05;0.90;;;21.50;92.70;;;;;;5049483;28;20059;-62
2022/05/07 09:17:31;;;;;;;0.70;0.60;;;21.50;93.60;;;;;;5049679;28;20047;-61
2022/05/07 09:19:57;;;;;;;0.80;0.70;;;21.60;92.70;;;;;;5049337;28;20051;-62
2022/05/07 09:22:25;;;;;;;0.68;0.60;;;21.90;92.30;;;;;;5049495;28;20518;-61
2022/05/07 09:24:55;;;;;;;2.17;0.77;;;21.80;91.00;;;;;;5049605;28;20025;-61
2022/05/07 09:27:22;;;;;;;0.68;0.65;;;21.60;92.50;;;;;;5049136;28;20060;-61
2022/05/07 09:30:02;;;;;;;0.80;0.60;;;21.60;92.20;;;;;;5049024;28;20128;-61
2022/05/07 09:32:38;;;;;;;1.42;0.85;;;21.20;92.70;;;;;;5049552;28;20052;-61
2022/05/07 09:38:01;;;;;;;1.10;0.82;;;20.70;95.40;;;;;;5049198;28;20044;-63
2022/05/07 09:40:28;;;;;;;1.40;0.80;;;20.30;96.00;;;;;;5048856;28;20036;-62
2022/05/07 09:42:57;;;;;;;1.00;0.70;;;20.00;96.10;;;;;;5067045;28;20781;-61
2022/05/07 09:45:27;;;;;;;0.70;0.70;;;20.20;96.20;;;;;;5068859;28;20063;-61
2022/05/07 09:47:56;;;;;;;0.80;0.80;;;20.50;97.30;;;;;;5069066;28;20107;-61
2022/05/07 09:50:24;;;;;;;1.00;0.80;;;20.90;96.90;;;;;;5068187;28;20206;-61
2022/05/07 09:58:20;;;;;;;0.70;0.70;;;20.30;95.60;;;;;;5068474;28;20112;-61
2022/05/07 10:01:25;;;;;;;1.27;0.70;;;20.40;96.40;;;;;;5068294;28;20029;-62
2022/05/07 10:03:50;;;;;;;1.30;1.20;;;20.40;95.80;;;;;;5066778;28;20040;-62
2022/05/07 10:06:48;;;;;;;0.50;0.50;;;24.00;93.40;;;;;;5067224;28;20028;-61
2022/05/07 10:09:29;;;;;;;0.60;0.60;;;28.10;76.00;;;;;;5068734;28;20037;-62
2022/05/07 10:11:56;;;;;;;0.93;0.50;;;30.80;55.00;;;;;;5068619;28;20032;-62
2022/05/07 10:14:30;;;;;;;0.40;0.40;;;33.00;40.20;;;;;;5068623;28;20021;-62
2022/05/07 10:17:04;;;;;;;0.60;0.60;;;34.90;27.90;;;;;;5068422;28;20094;-62
2022/05/07 10:19:45;;;;;;;1.20;0.63;;;34.70;23.60;;;;;;5068054;28;20554;-62
2022/05/07 10:22:23;;;;;;;1.10;0.52;;;37.00;22.60;;;;;;5068382;28;20040;-63
2022/05/07 10:25:05;;;;;;;0.47;0.47;;;38.40;19.90;;;;;;5068366;28;20415;-62
2022/05/07 10:27:36;;;;;;;0.55;0.55;;;33.40;20.90;;;;;;5068068;28;20473;-62
2022/05/07 10:30:15;;;;;;;0.50;0.50;;;30.40;26.80;;;;;;5067667;28;20101;-62
2022/05/07 10:32:57;;;;;;;0.45;0.45;;;27.70;33.50;;;;;;5068088;28;20021;-62
2022/05/07 10:35:55;;;;;;;0.45;0.45;;;25.30;47.20;;;;;;5067873;28;20025;-61
2022/05/07 10:38:26;;;;;;;1.00;0.77;;;23.30;62.30;;;;;;5067625;28;20029;-62
2022/05/07 10:41:06;;;;;;;0.60;0.60;;;21.90;75.90;;;;;;5067384;28;20028;-61
2022/05/07 10:43:42;;;;;;;1.05;0.80;;;20.90;86.40;;;;;;5067509;28;20076;-61
2022/05/07 10:46:18;;;;;;;0.85;0.82;;;20.10;92.50;;;;;;5067683;28;20051;-62
2022/05/07 10:48:56;;;;;;;0.90;0.85;;;19.60;94.30;;;;;;5067357;28;20100;-61
2022/05/07 10:51:33;;;;;;;1.30;0.80;;;19.10;97.10;;;;;;5067307;28;20116;-61
2022/05/07 10:54:05;;;;;;;1.98;1.15;;;18.70;99.90;;;;;;5067471;28;20032;-61
2022/05/07 10:56:33;;;;;;;1.38;0.90;;;18.40;99.90;;;;;;5067748;28;20035;-63
2022/05/07 10:58:59;;;;;;;0.82;0.82;;;18.20;99.90;;;;;;5067636;28;20032;-62
2022/05/07 11:01:29;;;;;;;0.80;0.80;;;18.00;99.90;;;;;;5067190;28;20485;-61
2022/05/07 11:04:08;;;;;;;0.90;0.70;;;17.80;99.90;;;;;;5064640;28;20489;-62
2022/05/07 11:06:40;;;;;;;1.77;1.38;;;17.70;99.90;;;;;;5067584;28;20354;-61
2022/05/07 11:09:13;;;;;;;0.70;0.70;;;17.70;99.90;;;;;;5067123;28;20435;-64
2022/05/07 11:11:45;;;;;;;0.80;0.80;;;17.60;99.90;;;;;;5067117;28;20028;-62
2022/05/07 11:14:26;;;;;;;1.20;1.00;;;17.50;99.90;;;;;;5067207;28;20028;-61
2022/05/07 11:16:52;;;;;;;;;;;17.40;99.90;;;;;;5067425;28;20029;-61
2022/05/07 11:19:32;;;;;;;1.33;1.02;;;17.30;99.90;;;;;;5067070;28;19905;-62
2022/05/07 11:22:02;;;;;;;1.50;1.37;;;17.30;99.90;;;;;;5066979;28;20470;-61
2022/05/07 11:24:30;;;;;;;1.50;1.13;;;17.30;99.90;;;;;;5066856;28;20020;-60
2022/05/07 11:27:05;;;;;;;1.50;1.40;;;17.30;99.90;;;;;;5067290;28;20084;-60
2022/05/07 11:29:32;;;;;;;2.53;1.15;;;17.30;99.90;;;;;;5066710;28;20660;-60
2022/05/07 11:31:58;;;;;;;1.17;1.08;;;17.40;99.90;;;;;;5066940;28;20028;-60
2022/05/07 11:34:37;;;;;;;1.10;0.93;;;17.50;99.90;;;;;;5066687;28;20024;-60
2022/05/07 11:37:36;;;;;;;1.58;1.23;;;17.50;99.90;;;;;;5066927;28;20477;-60
2022/05/07 11:40:03;;;;;;;1.15;1.05;;;17.40;99.90;;;;;;5066727;28;20024;-60
2022/05/07 11:42:34;;;;;;;1.35;1.10;;;17.60;99.90;;;;;;5065963;28;20586;-60
2022/05/07 11:48:13;;;;;;;1.20;1.10;;;17.70;99.90;;;;;;5066899;28;20079;-60
2022/05/07 11:50:56;;;;;;;1.73;1.20;;;17.80;99.90;;;;;;5066166;28;20392;-60
2022/05/07 11:53:26;;;;;;;2.55;1.38;;;17.80;99.90;;;;;;5066200;28;20024;-63
2022/05/07 11:55:52;;;;;;;1.42;1.33;;;17.90;99.90;;;;;;5066589;28;20035;-63
2022/05/07 11:58:23;;;;;;;2.65;1.20;;;17.90;99.90;;;;;;5066663;28;20032;-61
2022/05/07 12:00:51;;;;;;;1.27;1.15;;;17.90;99.90;;;;;;5066709;28;20028;-61
2022/05/07 12:03:19;;;;;;;1.42;1.10;;;17.90;99.90;;;;;;5066550;28;20024;-61
2022/05/07 12:05:50;;;;;;;1.65;1.00;;;17.90;99.90;;;;;;5065788;28;20056;-61
2022/05/07 12:08:23;;;;;;;2.22;1.20;;;17.90;99.90;;;;;;5066807;28;20029;-61
2022/05/07 12:10:51;;;;;;;1.48;1.17;;;17.90;99.90;;;;;;5065621;28;20523;-62
2022/05/07 12:13:18;;;;;;;2.50;1.38;;;17.90;99.90;;;;;;5065419;28;20024;-61
2022/05/07 12:18:29;;;;;;;1.67;1.40;;;18.00;99.90;;;;;;5066253;28;20039;-60
2022/05/07 12:20:55;;;;;;;1.40;1.30;;;17.90;99.90;;;;;;5066569;28;20032;-61
2022/05/07 12:29:49;;;;;;;1.52;1.20;;;17.90;99.90;;;;;;5065621;28;20082;-59
2022/05/07 12:31:50;;;;;;;1.60;1.10;;;18.30;99.90;;;;;;5065912;28;20059;-59
2022/05/07 12:34:16;;;;;;;1.02;0.93;;;18.50;99.90;;;;;;5066055;28;20024;-59
2022/05/07 12:36:42;;;;;;;1.15;0.90;;;18.90;99.90;;;;;;5066146;28;20162;-59
2022/05/07 12:39:08;;;;;;;1.58;1.40;;;19.30;99.60;;;;;;5066106;28;20036;-59
2022/05/07 12:41:33;;;;;;;1.15;1.10;;;19.60;96.20;;;;;;5065950;28;20520;-60
2022/05/07 12:44:00;;;;;;;2.47;1.60;;;19.90;95.60;;;;;;5065837;28;20047;-60
2022/05/07 12:46:26;;;;;;;1.83;1.45;;;20.30;94.40;;;;;;5065405;28;20381;-60
2022/05/07 12:48:52;;;;;;;1.98;1.23;;;20.60;93.40;;;;;;5065408;28;20433;-60
2022/05/07 12:51:18;;;;;;;1.70;1.23;;;20.90;90.90;;;;;;5065945;28;20033;-60
2022/05/07 12:53:43;;;;;;;0.63;0.63;;;21.90;88.80;;;;;;5044471;28;20067;-61
2022/05/07 12:56:09;;;;;;;1.13;0.60;;;22.60;84.50;;;;;;5065535;28;20040;-60
2022/05/07 12:58:36;;;;;;;0.93;0.82;;;22.90;82.20;;;;;;5065747;28;20024;-60
2022/05/07 13:01:02;;;;;;;1.55;0.90;;;23.80;80.00;;;;;;5065826;28;20156;-60
2022/05/07 13:03:28;;;;;;;0.57;0.57;;;26.60;68.00;;;;;;5065427;28;20028;-61
2022/05/07 13:05:53;;;;;;;1.08;0.80;;;28.30;49.90;;;;;;5066186;28;20074;-60
2022/05/07 13:08:20;;;;;;;1.23;0.80;;;27.70;48.40;;;;;;5065850;28;20028;-61
2022/05/07 13:10:46;;;;;;;0.77;0.77;;;26.60;49.30;;;;;;5065623;28;20580;-61
2022/05/07 13:13:11;;;;;;;1.75;1.55;;;26.20;49.00;;;;;;5065766;28;20100;-61
2022/05/07 13:15:37;;;;;;;1.42;1.33;;;24.70;47.90;;;;;;5065713;28;20112;-61
2022/05/07 13:18:04;;;;;;;2.67;1.70;;;23.60;56.10;;;;;;5067294;28;20029;-61
2022/05/07 13:20:30;;;;;;;1.30;1.20;;;22.80;61.70;;;;;;5069582;28;20036;-60
2022/05/07 13:22:56;;;;;;;1.02;0.95;;;21.70;67.90;;;;;;5051952;28;20066;-61
2022/05/07 13:25:22;;;;;;;1.45;1.20;;;21.30;75.10;;;;;;5069386;28;20810;-61
2022/05/07 13:27:49;;;;;;;2.15;1.13;;;21.10;76.50;;;;;;5051049;28;20392;-61
2022/05/07 13:30:18;;;;;;;1.55;1.45;;;20.60;85.20;;;;;;5069050;28;20071;-62